Villa Nueva, Argentina
Current Conditions -  °F | °C
As of 1:00 AM on Monday 22 Dec 2014 (Local Time) from SAOC Reporting Station
Clear Clear  
Wind Chill: 50°   Ceiling: Unl
Heat Index: 50°   Visibility: 6mi
Dew Point: 39°   Wind: 6mph
Humidity: 66%   Direction: 270°W
Pressure: 30.06"   Gusts: NA
Location:  32.43°S, 63.25°W
Report Text: SAOC 220400Z 27005KT CAVOK 10/04 Q1018
Loading
Personal Weather Stations






























Interactive Weather Map New forecast layout! Learn more

10-Day Weather Forecast

Advertisements
Track Severe Weather on mobile